createdAt,value
2023-01-07T00:41:12.785Z,967.52
2023-01-07T00:42:18.564Z,967.47
2023-01-07T00:43:24.497Z,967.47
2023-01-07T00:44:30.830Z,967.43
2023-01-07T00:45:36.486Z,967.43
2023-01-07T00:46:43.070Z,967.40
2023-01-07T00:47:50.062Z,967.38
2023-01-07T00:48:55.812Z,967.38
2023-01-07T00:50:01.537Z,967.40
2023-01-07T00:51:08.304Z,967.38
2023-01-07T00:52:15.122Z,967.43
2023-01-07T00:53:20.813Z,967.38
2023-01-07T00:54:27.441Z,967.38
2023-01-07T00:55:33.256Z,967.32
2023-01-07T00:56:39.060Z,967.33
2023-01-07T00:57:44.689Z,967.33
2023-01-07T00:58:50.463Z,967.34
2023-01-07T00:59:56.365Z,967.36
2023-01-07T01:01:02.239Z,967.34
2023-01-07T01:02:09.168Z,967.33
2023-01-07T01:03:15.100Z,967.27
2023-01-07T01:04:21.129Z,967.24
2023-01-07T01:05:27.427Z,967.29
2023-01-07T01:06:32.991Z,967.28
2023-01-07T01:07:38.803Z,967.25
2023-01-07T01:08:44.586Z,967.26
2023-01-07T01:09:50.421Z,967.27
2023-01-07T01:10:56.573Z,967.33
2023-01-07T01:12:02.153Z,967.34
2023-01-07T01:13:07.821Z,967.28
2023-01-07T01:14:13.546Z,967.25
2023-01-07T01:15:19.284Z,967.25
2023-01-07T01:16:25.725Z,967.23
2023-01-07T01:17:31.338Z,967.26
2023-01-07T01:18:36.940Z,967.23
2023-01-07T01:19:42.680Z,967.16
2023-01-07T01:20:48.232Z,967.20
2023-01-07T01:21:54.058Z,967.23
2023-01-07T01:22:59.647Z,967.15
2023-01-07T01:24:05.223Z,967.15
2023-01-07T01:25:10.786Z,967.16
2023-01-07T01:26:16.413Z,967.09
2023-01-07T01:27:21.941Z,967.15
2023-01-07T01:28:28.273Z,967.21
2023-01-07T01:29:33.883Z,967.17
2023-01-07T01:30:39.334Z,967.17
2023-01-07T01:31:45.035Z,967.19
2023-01-07T01:32:50.499Z,967.17
2023-01-07T01:33:56.028Z,967.15
2023-01-07T01:35:01.595Z,967.20
2023-01-07T01:36:07.177Z,967.17
2023-01-07T01:37:12.764Z,967.17
2023-01-07T01:38:18.297Z,967.20
2023-01-07T01:39:23.847Z,967.18
2023-01-07T01:40:29.442Z,967.14
2023-01-07T01:41:35.111Z,967.14
2023-01-07T01:42:40.649Z,967.17
2023-01-07T01:43:46.542Z,967.09
2023-01-07T01:44:52.736Z,967.11
2023-01-07T01:45:58.312Z,967.13
2023-01-07T01:47:03.892Z,967.10
2023-01-07T01:48:09.454Z,967.12
2023-01-07T01:49:15.026Z,967.12
2023-01-07T01:50:20.602Z,967.08
2023-01-07T01:51:26.175Z,967.09
2023-01-07T01:52:31.712Z,967.04
2023-01-07T01:53:37.249Z,967.05
2023-01-07T01:54:42.850Z,967.06
2023-01-07T01:55:48.423Z,967.07
2023-01-07T01:56:54.015Z,967.03
2023-01-07T01:57:59.572Z,967.01
2023-01-07T01:59:05.163Z,967.01
2023-01-07T02:00:10.709Z,967.04
2023-01-07T02:01:16.378Z,967.06
2023-01-07T02:02:22.125Z,967.03
2023-01-07T02:03:27.705Z,967.07
2023-01-07T02:04:33.378Z,967.00
2023-01-07T02:05:40.494Z,967.04
2023-01-07T02:06:46.124Z,966.98
2023-01-07T02:07:51.693Z,966.99
2023-01-07T02:08:57.277Z,966.99
2023-01-07T02:10:02.870Z,966.93
2023-01-07T02:11:08.453Z,966.89
2023-01-07T02:12:13.993Z,966.97
2023-01-07T02:13:19.560Z,966.95
2023-01-07T02:14:25.179Z,966.93
2023-01-07T02:15:30.734Z,966.96
2023-01-07T02:16:36.325Z,966.89
2023-01-07T02:17:41.896Z,966.96
2023-01-07T02:18:47.510Z,966.90
2023-01-07T02:19:53.112Z,966.91
2023-01-07T02:20:58.883Z,966.92
2023-01-07T02:22:04.411Z,966.87
2023-01-07T02:23:09.999Z,966.86
2023-01-07T02:24:15.554Z,966.84
2023-01-07T02:25:21.142Z,966.89
2023-01-07T02:26:26.693Z,966.83
2023-01-07T02:27:32.235Z,966.82
2023-01-07T02:28:37.764Z,966.80
2023-01-07T02:29:43.362Z,966.75
2023-01-07T02:30:48.926Z,966.79
2023-01-07T02:31:54.657Z,966.76
2023-01-07T02:33:00.217Z,966.75
2023-01-07T02:34:05.820Z,966.76
2023-01-07T02:35:11.383Z,966.78
2023-01-07T02:36:16.984Z,966.72
2023-01-07T02:37:22.697Z,966.70
2023-01-07T02:38:28.252Z,966.66
2023-01-07T02:39:33.867Z,966.64
2023-01-07T02:40:39.454Z,966.69
2023-01-07T02:41:45.076Z,966.69
2023-01-07T02:42:50.655Z,966.67
2023-01-07T02:43:56.232Z,966.56
2023-01-07T02:45:01.842Z,966.57
2023-01-07T02:46:07.449Z,966.63
2023-01-07T02:47:13.037Z,966.54
2023-01-07T02:48:18.713Z,966.54
2023-01-07T02:49:24.319Z,966.46
2023-01-07T02:50:29.894Z,966.52
2023-01-07T02:51:35.468Z,966.50
2023-01-07T02:52:41.075Z,966.45
2023-01-07T02:53:46.704Z,966.45
2023-01-07T02:54:52.265Z,966.45
2023-01-07T02:55:57.837Z,966.40
2023-01-07T02:57:03.403Z,966.41
2023-01-07T02:58:09.036Z,966.40
2023-01-07T02:59:14.564Z,966.42
2023-01-07T03:00:20.157Z,966.34
2023-01-07T03:01:25.872Z,966.36
2023-01-07T03:02:31.447Z,966.34
2023-01-07T03:03:37.011Z,966.40
2023-01-07T03:04:42.624Z,966.35
2023-01-07T03:05:48.176Z,966.35
2023-01-07T03:06:53.760Z,966.32
2023-01-07T03:07:59.341Z,966.26
2023-01-07T03:09:04.921Z,966.27
2023-01-07T03:10:10.503Z,966.30
2023-01-07T03:11:16.037Z,966.25
2023-01-07T03:12:21.593Z,966.30
2023-01-07T03:13:27.212Z,966.25
2023-01-07T03:14:32.828Z,966.22
2023-01-07T03:15:38.435Z,966.21
2023-01-07T03:16:44.025Z,966.20
2023-01-07T03:17:49.574Z,966.22
2023-01-07T03:18:55.152Z,966.20
2023-01-07T03:20:00.755Z,966.20
2023-01-07T03:21:06.310Z,966.21
2023-01-07T03:22:11.871Z,966.18
2023-01-07T03:23:17.429Z,966.15
2023-01-07T03:24:22.992Z,966.10
2023-01-07T03:25:28.545Z,966.14
2023-01-07T03:26:34.121Z,966.08
2023-01-07T03:27:39.637Z,966.06
2023-01-07T03:28:45.177Z,966.04
2023-01-07T03:29:50.718Z,966.03
2023-01-07T03:30:56.222Z,966.05
2023-01-07T03:32:01.888Z,966.07
2023-01-07T03:33:07.450Z,966.05
2023-01-07T03:34:12.993Z,966.00
2023-01-07T03:35:18.503Z,965.97
2023-01-07T03:36:24.050Z,965.94
2023-01-07T03:37:29.583Z,965.97
2023-01-07T03:38:35.160Z,965.95
2023-01-07T03:39:40.736Z,965.90
2023-01-07T03:40:46.275Z,965.90
2023-01-07T03:41:51.810Z,965.91
2023-01-07T03:42:57.368Z,965.93
2023-01-07T03:44:02.875Z,965.87
2023-01-07T03:45:08.388Z,965.90
2023-01-07T03:46:13.929Z,965.90
2023-01-07T03:47:19.428Z,965.91
2023-01-07T03:48:24.949Z,965.95
2023-01-07T03:49:30.482Z,965.91
2023-01-07T03:50:36.012Z,965.87
2023-01-07T03:51:41.490Z,965.89
2023-01-07T03:52:47.028Z,965.86
2023-01-07T03:53:52.489Z,965.87
2023-01-07T03:54:58.042Z,965.85
2023-01-07T03:56:03.605Z,965.85
2023-01-07T03:57:09.066Z,965.85
2023-01-07T03:58:14.555Z,965.81
2023-01-07T03:59:20.087Z,965.80
2023-01-07T04:00:25.577Z,965.80
2023-01-07T04:01:31.170Z,965.76
2023-01-07T04:02:36.686Z,965.69
2023-01-07T04:03:42.159Z,965.73
2023-01-07T04:04:47.836Z,965.60
2023-01-07T04:05:53.379Z,965.69
2023-01-07T04:06:58.849Z,965.66
2023-01-07T04:08:04.383Z,965.66
2023-01-07T04:09:09.842Z,965.66
2023-01-07T04:10:15.340Z,965.65
2023-01-07T04:11:20.823Z,965.65
2023-01-07T04:12:26.351Z,965.67
2023-01-07T04:13:31.906Z,965.65
2023-01-07T04:14:37.426Z,965.56
2023-01-07T04:15:43.005Z,965.59
2023-01-07T04:16:48.528Z,965.61
2023-01-07T04:17:54.048Z,965.58
2023-01-07T04:18:59.584Z,965.51
2023-01-07T04:20:05.149Z,965.48
2023-01-07T04:21:10.673Z,965.49
2023-01-07T04:22:16.192Z,965.49
2023-01-07T04:23:21.700Z,965.52
2023-01-07T04:24:27.204Z,965.43
2023-01-07T04:25:32.803Z,965.43
2023-01-07T04:26:38.273Z,965.38
2023-01-07T04:27:43.760Z,965.42
2023-01-07T04:28:49.334Z,965.42
2023-01-07T04:29:54.837Z,965.52
2023-01-07T04:31:00.332Z,965.49
2023-01-07T04:32:05.908Z,965.46
2023-01-07T04:33:11.381Z,965.49
2023-01-07T04:34:16.912Z,965.46
2023-01-07T04:35:22.385Z,965.42
2023-01-07T04:36:27.870Z,965.47
2023-01-07T04:37:33.338Z,965.45
2023-01-07T04:38:38.838Z,965.48
2023-01-07T04:39:44.330Z,965.33
2023-01-07T04:40:49.770Z,965.42
2023-01-07T04:41:55.240Z,965.32
2023-01-07T04:43:00.695Z,965.36
2023-01-07T04:44:06.141Z,965.31
2023-01-07T04:45:11.633Z,965.36
2023-01-07T04:46:17.136Z,965.31
2023-01-07T04:47:22.626Z,965.31
2023-01-07T04:48:28.127Z,965.27
2023-01-07T04:49:33.607Z,965.28
2023-01-07T04:50:39.080Z,965.27
2023-01-07T04:51:44.546Z,965.31
2023-01-07T04:52:50.046Z,965.20
2023-01-07T04:53:55.493Z,965.25
2023-01-07T04:55:01.023Z,965.17
2023-01-07T04:56:06.508Z,965.22
2023-01-07T04:57:11.977Z,965.16
2023-01-07T04:58:17.455Z,965.19
2023-01-07T04:59:22.960Z,965.18
2023-01-07T05:00:28.443Z,965.19
2023-01-07T05:01:34.085Z,965.16
2023-01-07T05:02:39.637Z,965.09
2023-01-07T05:03:45.156Z,965.15
2023-01-07T05:04:50.733Z,965.14
2023-01-07T05:05:56.181Z,965.15
2023-01-07T05:07:01.636Z,965.14
2023-01-07T05:08:07.003Z,965.12
2023-01-07T05:09:12.387Z,965.16
2023-01-07T05:10:17.839Z,965.12
2023-01-07T05:11:23.286Z,965.14
2023-01-07T05:12:28.767Z,965.08
2023-01-07T05:13:34.232Z,965.07
2023-01-07T05:14:39.747Z,965.09
2023-01-07T05:15:45.265Z,965.06
2023-01-07T05:16:50.895Z,965.03
2023-01-07T05:17:56.512Z,965.05
2023-01-07T05:19:02.005Z,965.03
2023-01-07T05:20:07.527Z,965.01
2023-01-07T05:21:13.147Z,965.06
2023-01-07T05:22:18.631Z,965.04
2023-01-07T05:23:24.132Z,965.02
2023-01-07T05:24:29.645Z,965.01
2023-01-07T05:25:35.094Z,965.00
2023-01-07T05:26:40.465Z,964.97
2023-01-07T05:27:45.928Z,964.97
2023-01-07T05:28:51.427Z,964.93
2023-01-07T05:29:56.917Z,964.86
2023-01-07T05:31:02.532Z,964.87
2023-01-07T05:32:07.927Z,964.86
2023-01-07T05:33:13.405Z,964.89
2023-01-07T05:34:18.818Z,964.94
2023-01-07T05:35:24.342Z,964.84
2023-01-07T05:36:29.732Z,964.80
2023-01-07T05:37:35.162Z,964.80
2023-01-07T05:38:40.522Z,964.84
2023-01-07T05:39:45.908Z,964.84
2023-01-07T05:40:51.325Z,964.84
2023-01-07T05:41:56.748Z,964.84
2023-01-07T05:43:02.184Z,964.80
2023-01-07T05:44:07.662Z,964.83
2023-01-07T05:45:13.135Z,964.82
2023-01-07T05:46:18.538Z,964.85
2023-01-07T05:47:23.881Z,964.86
2023-01-07T05:48:29.245Z,964.79
2023-01-07T05:49:34.634Z,964.78
2023-01-07T05:50:40.011Z,964.86
2023-01-07T05:51:45.376Z,964.79
2023-01-07T05:52:50.759Z,964.77
2023-01-07T05:53:56.188Z,964.74
2023-01-07T05:55:01.549Z,964.75
2023-01-07T05:56:06.924Z,964.74
2023-01-07T05:57:12.307Z,964.82
2023-01-07T05:58:17.684Z,964.77
2023-01-07T05:59:23.076Z,964.72
2023-01-07T06:00:28.439Z,964.71
2023-01-07T06:01:33.868Z,964.74
2023-01-07T06:02:39.256Z,964.79
2023-01-07T06:03:44.696Z,964.70
2023-01-07T06:04:50.162Z,964.70
2023-01-07T06:05:55.586Z,964.66
2023-01-07T06:07:00.950Z,964.70
2023-01-07T06:08:06.339Z,964.72
2023-01-07T06:09:11.737Z,964.67
2023-01-07T06:10:17.165Z,964.67
2023-01-07T06:11:22.551Z,964.66
2023-01-07T06:12:27.952Z,964.62
2023-01-07T06:13:33.349Z,964.62
2023-01-07T06:14:38.751Z,964.66
2023-01-07T06:15:44.214Z,964.72
2023-01-07T06:16:49.627Z,964.65
2023-01-07T06:17:55.018Z,964.69
2023-01-07T06:19:00.417Z,964.66
2023-01-07T06:20:05.837Z,964.63
2023-01-07T06:21:11.251Z,964.69
2023-01-07T06:22:16.644Z,964.58
2023-01-07T06:23:22.048Z,964.61
2023-01-07T06:24:27.472Z,964.68
2023-01-07T06:25:32.866Z,964.63
2023-01-07T06:26:38.304Z,964.67
2023-01-07T06:27:43.801Z,964.63
2023-01-07T06:28:49.188Z,964.65
2023-01-07T06:29:54.596Z,964.61
2023-01-07T06:31:00.084Z,964.56
2023-01-07T06:32:05.548Z,964.57
2023-01-07T06:33:10.912Z,964.55
2023-01-07T06:34:16.324Z,964.54
2023-01-07T06:35:21.813Z,964.54
2023-01-07T06:36:27.192Z,964.56
2023-01-07T06:37:32.608Z,964.57
2023-01-07T06:38:38.033Z,964.50
2023-01-07T06:39:43.477Z,964.54
2023-01-07T06:40:48.878Z,964.56
2023-01-07T06:41:54.286Z,964.52
2023-01-07T06:42:59.748Z,964.52
2023-01-07T06:44:05.132Z,964.49
2023-01-07T06:45:10.904Z,964.49
2023-01-07T06:46:16.390Z,964.43
2023-01-07T06:47:21.808Z,964.38
2023-01-07T06:48:27.250Z,964.42
2023-01-07T06:49:32.689Z,964.46
2023-01-07T06:50:38.125Z,964.39
2023-01-07T06:51:43.533Z,964.41
2023-01-07T06:52:48.966Z,964.41
2023-01-07T06:53:54.372Z,964.35
2023-01-07T06:54:59.795Z,964.32
2023-01-07T06:56:05.220Z,964.37
2023-01-07T06:57:10.631Z,964.36
2023-01-07T06:58:16.048Z,964.27
2023-01-07T06:59:21.490Z,964.29
2023-01-07T07:00:26.936Z,964.31
2023-01-07T07:01:32.501Z,964.23
2023-01-07T07:02:37.975Z,964.23
2023-01-07T07:03:43.370Z,964.20
2023-01-07T07:04:48.808Z,964.28
2023-01-07T07:05:54.232Z,964.24
2023-01-07T07:06:59.669Z,964.26
2023-01-07T07:08:05.114Z,964.28
2023-01-07T07:09:10.528Z,964.28
2023-01-07T07:10:15.978Z,964.24
2023-01-07T07:11:21.429Z,964.22
2023-01-07T07:12:26.853Z,964.16
2023-01-07T07:13:32.342Z,964.24
2023-01-07T07:14:37.735Z,964.19
2023-01-07T07:15:43.269Z,964.19
2023-01-07T07:16:48.663Z,964.19
2023-01-07T07:17:54.106Z,964.20
2023-01-07T07:18:59.518Z,964.20
2023-01-07T07:20:04.979Z,964.20
2023-01-07T07:21:10.386Z,964.23
2023-01-07T07:22:15.818Z,964.16
2023-01-07T07:23:21.275Z,964.16
2023-01-07T07:24:26.693Z,964.13
2023-01-07T07:25:32.146Z,964.06
2023-01-07T07:26:37.544Z,964.09
2023-01-07T07:27:42.966Z,964.10
2023-01-07T07:28:48.377Z,963.96
2023-01-07T07:29:53.839Z,964.10
2023-01-07T07:30:59.310Z,964.00
2023-01-07T07:32:04.754Z,964.07
2023-01-07T07:33:10.138Z,964.07
2023-01-07T07:34:15.579Z,964.13
2023-01-07T07:35:21.008Z,964.00
2023-01-07T07:36:26.443Z,964.06
2023-01-07T07:37:31.845Z,964.03
2023-01-07T07:38:37.266Z,964.04
2023-01-07T07:39:42.675Z,964.05
2023-01-07T07:40:48.096Z,964.07
2023-01-07T07:41:53.497Z,963.98
2023-01-07T07:43:12.461Z,964.05
2023-01-07T07:44:10.209Z,964.02
2023-01-07T07:45:15.629Z,963.95
2023-01-07T07:46:21.087Z,963.98
2023-01-07T07:47:26.475Z,964.00
2023-01-07T07:48:31.913Z,963.91
2023-01-07T07:49:37.293Z,963.99
2023-01-07T07:50:42.691Z,963.87
2023-01-07T07:51:48.103Z,963.94
2023-01-07T07:52:53.500Z,963.91
2023-01-07T07:53:58.904Z,963.93
2023-01-07T07:55:20.664Z,963.89
2023-01-07T07:56:15.575Z,963.88
2023-01-07T07:57:20.952Z,963.93
2023-01-07T07:58:26.356Z,963.87
2023-01-07T07:59:31.742Z,963.82
2023-01-07T08:00:37.115Z,963.82
2023-01-07T08:01:42.625Z,963.84
2023-01-07T08:02:48.059Z,963.92
2023-01-07T08:03:53.420Z,963.91
2023-01-07T08:04:58.850Z,963.85
2023-01-07T08:06:04.221Z,963.85
2023-01-07T08:07:09.652Z,963.88
2023-01-07T08:08:15.161Z,963.85
2023-01-07T08:09:20.572Z,963.83
2023-01-07T08:10:26.041Z,963.84
2023-01-07T08:11:31.521Z,963.84
2023-01-07T08:12:36.991Z,963.85
2023-01-07T08:13:43.262Z,963.87
2023-01-07T08:14:48.812Z,963.84
2023-01-07T08:15:54.344Z,963.82
2023-01-07T08:16:59.810Z,963.80
2023-01-07T08:18:05.277Z,963.78
2023-01-07T08:19:10.764Z,963.80
2023-01-07T08:20:16.292Z,963.76
2023-01-07T08:21:21.831Z,963.66
2023-01-07T08:22:27.326Z,963.74
2023-01-07T08:23:32.848Z,963.73
2023-01-07T08:24:38.416Z,963.68
2023-01-07T08:25:43.973Z,963.71
2023-01-07T08:26:49.529Z,963.71
2023-01-07T08:27:55.113Z,963.68
2023-01-07T08:29:00.698Z,963.71
2023-01-07T08:30:06.365Z,963.60
2023-01-07T08:31:11.981Z,963.68
2023-01-07T08:32:17.542Z,963.65
2023-01-07T08:33:23.184Z,963.66
2023-01-07T08:34:28.716Z,963.66
2023-01-07T08:35:34.290Z,963.67
2023-01-07T08:36:39.857Z,963.66
2023-01-07T08:37:45.452Z,963.68
2023-01-07T08:38:51.021Z,963.71
2023-01-07T08:39:56.616Z,963.70
2023-01-07T08:41:02.198Z,963.64
2023-01-07T08:42:07.814Z,963.68
2023-01-07T08:43:13.429Z,963.69
2023-01-07T08:44:19.010Z,963.72
2023-01-07T08:45:24.586Z,963.62
2023-01-07T08:46:30.207Z,963.64
2023-01-07T08:47:35.738Z,963.57
2023-01-07T08:48:41.311Z,963.62
2023-01-07T08:49:46.885Z,963.57
2023-01-07T08:50:52.442Z,963.47
2023-01-07T08:51:58.016Z,963.48
2023-01-07T08:53:03.620Z,963.50
2023-01-07T08:54:09.154Z,963.48
2023-01-07T08:55:14.703Z,963.47
2023-01-07T08:56:20.266Z,963.45
2023-01-07T08:57:25.784Z,963.47
2023-01-07T08:58:31.322Z,963.44
2023-01-07T08:59:36.846Z,963.48
2023-01-07T09:00:42.423Z,963.44
2023-01-07T09:01:47.979Z,963.43
2023-01-07T09:02:53.511Z,963.45
2023-01-07T09:03:59.017Z,963.46
2023-01-07T09:05:04.541Z,963.46
2023-01-07T09:06:10.035Z,963.46
2023-01-07T09:07:15.523Z,963.45
2023-01-07T09:08:21.025Z,963.48
2023-01-07T09:09:26.508Z,963.46
2023-01-07T09:10:32.068Z,963.41
2023-01-07T09:11:37.525Z,963.48
2023-01-07T09:12:42.995Z,963.47
2023-01-07T09:13:48.480Z,963.50
2023-01-07T09:14:53.968Z,963.49
2023-01-07T09:15:59.503Z,963.49
2023-01-07T09:17:04.965Z,963.51
2023-01-07T09:18:10.428Z,963.52
2023-01-07T09:19:15.909Z,963.47
2023-01-07T09:20:21.398Z,963.52
2023-01-07T09:21:26.862Z,963.48
2023-01-07T09:22:32.320Z,963.49
2023-01-07T09:23:37.789Z,963.47
2023-01-07T09:24:43.256Z,963.48
2023-01-07T09:25:48.712Z,963.44
2023-01-07T09:26:54.222Z,963.50
2023-01-07T09:27:59.653Z,963.46
2023-01-07T09:29:05.078Z,963.49
2023-01-07T09:30:10.516Z,963.50
2023-01-07T09:31:15.953Z,963.46
2023-01-07T09:32:21.452Z,963.46
2023-01-07T09:33:26.871Z,963.48
2023-01-07T09:34:32.309Z,963.48
2023-01-07T09:35:37.733Z,963.53
2023-01-07T09:36:43.148Z,963.59
2023-01-07T09:37:48.565Z,963.50
2023-01-07T09:38:53.992Z,963.53
2023-01-07T09:39:59.434Z,963.48
2023-01-07T09:41:04.876Z,963.48
2023-01-07T09:42:10.303Z,963.54
2023-01-07T09:43:15.771Z,963.51
2023-01-07T09:44:21.171Z,963.44
2023-01-07T09:45:26.626Z,963.47
2023-01-07T09:46:32.036Z,963.49
2023-01-07T09:47:37.422Z,963.52
2023-01-07T09:48:42.816Z,963.49
2023-01-07T09:49:48.563Z,963.49
2023-01-07T09:50:53.941Z,963.45
2023-01-07T09:51:59.322Z,963.49
2023-01-07T09:53:04.678Z,963.46
2023-01-07T09:54:10.035Z,963.43
2023-01-07T09:55:15.425Z,963.50
2023-01-07T09:56:20.787Z,963.44
2023-01-07T09:57:26.139Z,963.38
2023-01-07T09:58:31.507Z,963.42
2023-01-07T09:59:36.906Z,963.41
2023-01-07T10:00:42.298Z,963.43
2023-01-07T10:01:47.690Z,963.43
2023-01-07T10:02:53.173Z,963.38
2023-01-07T10:03:58.631Z,963.39
2023-01-07T10:05:04.007Z,963.39
2023-01-07T10:06:09.433Z,963.37
2023-01-07T10:07:14.790Z,963.34
2023-01-07T10:08:29.067Z,963.30
2023-01-07T10:09:31.427Z,963.25
2023-01-07T10:10:36.780Z,963.21
2023-01-07T10:11:44.085Z,963.19
2023-01-07T10:12:49.464Z,963.15
2023-01-07T10:13:54.820Z,963.13
2023-01-07T10:15:00.139Z,963.15
2023-01-07T10:16:05.798Z,963.10
2023-01-07T10:17:11.209Z,963.08
2023-01-07T10:18:16.584Z,963.01
2023-01-07T10:19:21.961Z,963.00
2023-01-07T10:20:27.355Z,962.97
2023-01-07T10:21:32.719Z,962.99
2023-01-07T10:22:38.125Z,962.98
2023-01-07T10:23:43.527Z,962.93
2023-01-07T10:24:48.937Z,962.92
2023-01-07T10:25:54.372Z,962.87
2023-01-07T10:26:59.783Z,962.85
2023-01-07T10:28:05.175Z,962.84
2023-01-07T10:29:10.561Z,962.83
2023-01-07T10:30:15.984Z,962.83
2023-01-07T10:31:21.400Z,962.78
2023-01-07T10:32:26.809Z,962.76
2023-01-07T10:33:32.227Z,962.81
2023-01-07T10:34:37.556Z,962.82
2023-01-07T10:35:42.901Z,962.82
2023-01-07T10:36:48.250Z,962.73
2023-01-07T10:37:53.579Z,962.74
2023-01-07T10:38:58.917Z,962.76
2023-01-07T10:40:04.378Z,962.75
2023-01-07T10:41:09.813Z,962.79
2023-01-07T10:42:15.209Z,962.66
2023-01-07T10:43:20.626Z,962.71
2023-01-07T10:44:26.065Z,962.70
2023-01-07T10:45:31.596Z,962.66
2023-01-07T10:46:37.016Z,962.66
2023-01-07T10:47:42.484Z,962.68
2023-01-07T10:48:48.000Z,962.62
2023-01-07T10:49:53.504Z,962.58
2023-01-07T10:50:59.002Z,962.56
2023-01-07T10:52:04.481Z,962.52
2023-01-07T10:53:09.913Z,962.57
2023-01-07T10:54:15.348Z,962.55
2023-01-07T10:55:20.768Z,962.47
2023-01-07T10:56:26.121Z,962.50
2023-01-07T10:57:31.483Z,962.51
2023-01-07T10:58:36.808Z,962.52
2023-01-07T10:59:42.155Z,962.45
2023-01-07T11:00:47.557Z,962.38
2023-01-07T11:01:53.082Z,962.44
2023-01-07T11:02:58.561Z,962.37
2023-01-07T11:04:03.912Z,962.32
2023-01-07T11:05:09.288Z,962.31
2023-01-07T11:06:14.585Z,962.33
2023-01-07T11:07:19.913Z,962.32
2023-01-07T11:08:25.268Z,962.24
2023-01-07T11:09:30.642Z,962.24
2023-01-07T11:10:36.168Z,962.24
2023-01-07T11:11:41.628Z,962.31
2023-01-07T11:12:47.042Z,962.27
2023-01-07T11:13:52.546Z,962.26
2023-01-07T11:14:57.994Z,962.22
2023-01-07T11:16:03.429Z,962.16
2023-01-07T11:17:08.836Z,962.15
2023-01-07T11:18:14.270Z,962.12
2023-01-07T11:19:20.815Z,962.12
2023-01-07T11:20:26.231Z,962.13
2023-01-07T11:21:42.808Z,962.09
2023-01-07T11:22:42.977Z,962.03
2023-01-07T11:23:48.379Z,962.06
2023-01-07T11:24:53.802Z,962.03
2023-01-07T11:25:59.214Z,962.03
2023-01-07T11:27:04.697Z,962.03
2023-01-07T11:28:10.053Z,962.05
2023-01-07T11:29:15.421Z,961.96
2023-01-07T11:30:20.847Z,961.98
2023-01-07T11:31:26.265Z,961.92
2023-01-07T11:32:31.591Z,961.93
2023-01-07T11:34:01.678Z,961.89
2023-01-07T11:34:48.263Z,961.92
2023-01-07T11:35:53.678Z,961.95
2023-01-07T11:36:59.079Z,961.92
2023-01-07T11:38:04.490Z,961.92
2023-01-07T11:39:09.940Z,961.90
2023-01-07T11:40:15.881Z,961.96
2023-01-07T11:41:22.082Z,961.92
2023-01-07T11:42:27.559Z,961.83
2023-01-07T11:43:32.980Z,961.77
2023-01-07T11:44:38.426Z,961.78
2023-01-07T11:45:43.984Z,961.77
2023-01-07T11:46:55.319Z,961.77
2023-01-07T11:48:00.754Z,961.77
2023-01-07T11:49:06.197Z,961.73
2023-01-07T11:50:11.682Z,961.75
2023-01-07T11:51:17.156Z,961.68
2023-01-07T11:52:22.571Z,961.63
2023-01-07T11:53:28.027Z,961.61
2023-01-07T11:54:33.530Z,961.61
2023-01-07T11:55:38.967Z,961.57
2023-01-07T11:56:44.415Z,961.62
2023-01-07T11:57:49.909Z,961.59
2023-01-07T11:58:55.370Z,961.56
2023-01-07T12:00:00.855Z,961.54
2023-01-07T12:01:06.335Z,961.57
2023-01-07T12:02:11.789Z,961.53
2023-01-07T12:03:17.245Z,961.47
2023-01-07T12:04:22.691Z,961.38
2023-01-07T12:05:28.170Z,961.45
2023-01-07T12:06:33.709Z,961.41
2023-01-07T12:07:41.227Z,961.33
2023-01-07T12:08:47.301Z,961.34
2023-01-07T12:09:52.772Z,961.35
2023-01-07T12:10:58.829Z,961.30
2023-01-07T12:12:04.248Z,961.32
2023-01-07T12:13:09.751Z,961.34
2023-01-07T12:14:15.198Z,961.24
2023-01-07T12:15:20.731Z,961.21
2023-01-07T12:16:26.189Z,961.22
2023-01-07T12:17:31.622Z,961.20
2023-01-07T12:18:37.120Z,961.08
2023-01-07T12:19:42.628Z,960.98
2023-01-07T12:20:48.124Z,961.05
2023-01-07T12:21:53.781Z,961.01
2023-01-07T12:23:00.612Z,960.97
2023-01-07T12:24:06.142Z,960.89
2023-01-07T12:25:11.666Z,960.90
2023-01-07T12:26:17.205Z,960.90
2023-01-07T12:27:22.823Z,960.83
2023-01-07T12:28:28.324Z,960.83
2023-01-07T12:29:33.882Z,960.86
2023-01-07T12:30:39.404Z,960.80
2023-01-07T12:31:45.044Z,960.85
2023-01-07T12:32:50.703Z,960.83
2023-01-07T12:33:56.247Z,960.93
2023-01-07T12:35:14.235Z,960.76
2023-01-07T12:36:13.362Z,960.80
2023-01-07T12:37:18.918Z,960.84
2023-01-07T12:38:24.377Z,960.76
2023-01-07T12:39:29.895Z,960.76
2023-01-07T12:40:35.372Z,960.69
2023-01-07T12:41:40.806Z,960.75
2023-01-07T12:42:46.193Z,960.72
2023-01-07T12:43:52.262Z,960.65
2023-01-07T12:44:57.950Z,960.67
2023-01-07T12:46:03.398Z,960.60
2023-01-07T12:47:32.688Z,960.61
2023-01-07T12:48:20.137Z,960.56
2023-01-07T12:49:25.481Z,960.59
2023-01-07T12:50:30.898Z,960.53
2023-01-07T12:51:36.287Z,960.46
2023-01-07T12:52:41.623Z,960.52
2023-01-07T12:53:46.958Z,960.49
2023-01-07T12:54:52.323Z,960.41
2023-01-07T12:55:57.740Z,960.41
2023-01-07T12:57:03.094Z,960.45
2023-01-07T12:58:08.520Z,960.33
2023-01-07T12:59:46.394Z,960.32
2023-01-07T13:00:25.140Z,960.31
2023-01-07T13:01:30.820Z,960.33
2023-01-07T13:02:37.576Z,960.28
2023-01-07T13:03:42.984Z,960.36
2023-01-07T13:04:48.377Z,960.38
2023-01-07T13:05:53.727Z,960.36
2023-01-07T13:06:59.061Z,960.38
2023-01-07T13:08:04.610Z,960.40
2023-01-07T13:09:09.933Z,960.32
2023-01-07T13:10:15.298Z,960.34
2023-01-07T13:11:20.665Z,960.33
2023-01-07T13:12:41.232Z,960.33
2023-01-07T13:13:37.232Z,960.26
2023-01-07T13:14:42.591Z,960.35
2023-01-07T13:15:47.965Z,960.30
2023-01-07T13:16:53.375Z,960.30
2023-01-07T13:17:58.694Z,960.35
2023-01-07T13:19:04.055Z,960.26
2023-01-07T13:20:09.385Z,960.29
2023-01-07T13:21:14.712Z,960.36
2023-01-07T13:22:20.061Z,960.22
2023-01-07T13:23:25.398Z,960.26
2023-01-07T13:24:54.533Z,960.21
2023-01-07T13:25:41.975Z,960.23
2023-01-07T13:26:47.311Z,960.23
2023-01-07T13:27:52.920Z,960.22
2023-01-07T13:28:58.335Z,960.15
2023-01-07T13:30:03.725Z,960.16
2023-01-07T13:31:09.793Z,960.18
2023-01-07T13:32:15.351Z,960.12
2023-01-07T13:33:20.918Z,960.09
2023-01-07T13:34:26.943Z,960.02
2023-01-07T13:35:32.337Z,960.05
2023-01-07T13:36:37.813Z,960.02
2023-01-07T13:37:43.246Z,960.04
2023-01-07T13:38:48.676Z,960.00
2023-01-07T13:39:54.068Z,960.01
2023-01-07T13:40:59.502Z,959.95
2023-01-07T13:42:04.879Z,960.01
2023-01-07T13:43:10.300Z,959.96
2023-01-07T13:44:15.767Z,959.99
2023-01-07T13:45:21.177Z,959.96
2023-01-07T13:46:26.650Z,959.90
2023-01-07T13:47:32.061Z,959.92
2023-01-07T13:48:37.468Z,959.91
2023-01-07T13:49:56.979Z,959.91
2023-01-07T13:50:54.214Z,959.93
2023-01-07T13:51:59.645Z,959.91
2023-01-07T13:53:05.073Z,959.90
2023-01-07T13:54:11.875Z,959.87
2023-01-07T13:55:17.402Z,959.87
2023-01-07T13:56:22.859Z,959.85
2023-01-07T13:57:28.285Z,959.81
2023-01-07T13:58:33.713Z,959.80
2023-01-07T13:59:39.150Z,959.79
2023-01-07T14:00:44.585Z,959.78
2023-01-07T14:01:50.116Z,959.74
2023-01-07T14:02:55.642Z,959.82
2023-01-07T14:04:01.136Z,959.83
2023-01-07T14:05:06.601Z,959.76
2023-01-07T14:06:12.087Z,959.81
2023-01-07T14:07:17.547Z,959.77
2023-01-07T14:08:22.994Z,959.78
2023-01-07T14:09:28.469Z,959.78
2023-01-07T14:10:33.920Z,959.78
2023-01-07T14:11:39.385Z,959.83
2023-01-07T14:12:44.928Z,959.74
2023-01-07T14:13:50.381Z,959.74
2023-01-07T14:14:55.852Z,959.77
2023-01-07T14:16:01.404Z,959.82
2023-01-07T14:17:06.927Z,959.76
2023-01-07T14:18:12.396Z,959.74
2023-01-07T14:19:17.879Z,959.78